Time;durP1;ratioP1;P1;durP2;ratioP2;P2;SDS_P1;SDS_P2;PMS_P1;PMS_P2;Temp;Humidity;BMP_temperature;BMP_pressure;BME280_temperature;BME280_humidity;BME280_pressure;Samples;Min_cycle;Max_cycle;Signal;HPM_P1;HPM_P2
2022/01/18 00:01:11;;;;;;;35.30;6.67;;;7.10;99.90;;;;;;5037933;28;20180;-77
2022/01/18 00:03:36;;;;;;;25.77;5.90;;;7.10;99.90;;;;;;5019406;28;20219;-77
2022/01/18 00:06:03;;;;;;;24.40;5.40;;;7.10;99.90;;;;;;5020263;28;20188;-77
2022/01/18 00:08:28;;;;;;;25.30;6.13;;;7.10;99.90;;;;;;5037108;28;20204;-77
2022/01/18 00:10:54;;;;;;;33.80;5.97;;;7.10;99.90;;;;;;5037598;28;20180;-77
2022/01/18 00:13:36;;;;;;;28.73;5.20;;;7.10;99.90;;;;;;5037481;28;20195;-77
2022/01/18 00:18:31;;;;;;;26.20;5.23;;;7.10;99.90;;;;;;5017833;28;20272;-77
2022/01/18 00:23:23;;;;;;;24.73;5.20;;;7.10;99.90;;;;;;5017820;28;20177;-77
2022/01/18 00:25:54;;;;;;;26.37;4.87;;;7.10;99.90;;;;;;5000315;28;20189;-77
2022/01/18 00:28:20;;;;;;;31.77;5.40;;;7.10;99.90;;;;;;4999015;28;20197;-78
2022/01/18 00:33:21;;;;;;;29.07;4.90;;;7.10;99.90;;;;;;5017651;28;20518;-77
2022/01/18 00:35:51;;;;;;;24.87;5.50;;;7.10;99.90;;;;;;5018126;28;20189;-77
2022/01/18 00:38:44;;;;;;;23.20;4.83;;;7.10;99.90;;;;;;5019157;28;20191;-77
2022/01/18 00:41:10;;;;;;;32.10;5.67;;;7.10;99.90;;;;;;5019665;28;20178;-77
2022/01/18 00:43:36;;;;;;;22.23;5.27;;;7.10;99.90;;;;;;5036364;28;20165;-78
2022/01/18 00:46:02;;;;;;;24.40;4.97;;;7.10;99.90;;;;;;5037038;28;20179;-77
2022/01/18 00:48:32;;;;;;;27.87;5.37;;;7.10;99.90;;;;;;5019088;28;20212;-77
2022/01/18 00:50:58;;;;;;;20.77;4.53;;;7.00;99.90;;;;;;5019548;28;20180;-77
2022/01/18 00:53:25;;;;;;;30.53;5.23;;;7.00;99.90;;;;;;5036472;28;20188;-77
2022/01/18 00:56:06;;;;;;;22.63;4.23;;;7.00;99.90;;;;;;5019051;28;20258;-77
2022/01/18 00:58:31;;;;;;;21.87;4.27;;;7.00;99.90;;;;;;5036961;28;20187;-77
2022/01/18 01:00:57;;;;;;;20.43;4.33;;;7.00;99.90;;;;;;5019579;28;20290;-78
2022/01/18 01:03:23;;;;;;;26.87;4.77;;;6.90;99.90;;;;;;5037094;28;20180;-77
2022/01/18 01:05:50;;;;;;;28.83;4.77;;;7.00;99.90;;;;;;5036773;28;20191;-77
2022/01/18 01:08:15;;;;;;;23.90;4.10;;;7.00;99.90;;;;;;5019190;28;20211;-77
2022/01/18 01:10:41;;;;;;;21.50;4.63;;;6.90;99.90;;;;;;5019210;28;20195;-77
2022/01/18 01:13:08;;;;;;;23.80;5.40;;;6.90;99.90;;;;;;5019538;28;20196;-77
2022/01/18 01:15:41;;;;;;;20.70;3.60;;;6.90;99.90;;;;;;5036037;28;20180;-77
2022/01/18 01:34:40;;;;;;;19.90;4.10;;;6.90;99.90;;;;;;5036593;28;20237;-78
2022/01/18 01:41:46;;;;;;;27.33;4.47;;;6.90;99.90;;;;;;5035913;28;20176;-77
2022/01/18 01:43:17;;;;;;;25.20;4.83;;;6.80;99.90;;;;;;5036280;28;20195;-77
2022/01/18 01:45:43;;;;;;;26.23;4.57;;;6.80;99.90;;;;;;5038967;28;20165;-76
2022/01/18 01:48:09;;;;;;;21.63;4.57;;;6.80;99.90;;;;;;5021992;28;20223;-77
2022/01/18 01:50:53;;;;;;;18.80;3.70;;;6.80;99.90;;;;;;5040192;28;20192;-77
2022/01/18 01:53:25;;;;;;;16.73;4.60;;;6.80;99.90;;;;;;5040036;28;20160;-77
2022/01/18 01:55:52;;;;;;;25.90;4.57;;;6.80;99.90;;;;;;5022293;28;20173;-77
2022/01/18 01:58:20;;;;;;;24.20;4.47;;;6.80;99.90;;;;;;5039426;28;20681;-77
2022/01/18 02:00:49;;;;;;;25.70;5.27;;;6.80;99.90;;;;;;5040110;28;20194;-78
2022/01/18 02:03:16;;;;;;;24.20;4.47;;;6.90;99.90;;;;;;5039768;28;20177;-77
2022/01/18 02:05:42;;;;;;;19.87;4.67;;;6.90;99.90;;;;;;5039650;28;20172;-77
2022/01/18 02:08:08;;;;;;;28.30;4.80;;;7.00;99.90;;;;;;5020628;28;20194;-78
2022/01/18 02:10:40;;;;;;;25.10;4.87;;;6.90;99.90;;;;;;5021747;28;20204;-77
2022/01/18 02:13:08;;;;;;;25.47;4.93;;;6.90;99.90;;;;;;5039727;28;20645;-77
2022/01/18 02:15:40;;;;;;;30.83;5.17;;;6.90;99.90;;;;;;5021481;28;20632;-77
2022/01/18 02:23:37;;;;;;;22.27;3.60;;;6.90;99.90;;;;;;5040521;28;20227;-77
2022/01/18 02:26:03;;;;;;;19.53;4.20;;;7.00;99.90;;;;;;5038911;28;20298;-77
2022/01/18 02:28:29;;;;;;;17.20;3.77;;;7.00;99.90;;;;;;5038352;28;20200;-77
2022/01/18 02:30:55;;;;;;;26.83;4.60;;;6.90;99.90;;;;;;5038364;28;20191;-77
2022/01/18 02:33:21;;;;;;;25.00;4.07;;;7.00;99.90;;;;;;5039175;28;20188;-77
2022/01/18 02:35:47;;;;;;;22.23;3.83;;;6.90;99.90;;;;;;5038802;28;20193;-77
2022/01/18 02:38:13;;;;;;;21.57;4.47;;;6.90;99.90;;;;;;5038644;28;20188;-77
2022/01/18 02:40:39;;;;;;;23.13;4.03;;;6.90;99.90;;;;;;5039089;28;20223;-77
2022/01/18 02:45:53;;;;;;;22.07;4.40;;;6.90;99.90;;;;;;5039172;28;20175;-76
2022/01/18 02:48:20;;;;;;;23.30;3.87;;;6.90;99.90;;;;;;5038087;28;20219;-77
2022/01/18 02:50:46;;;;;;;21.70;4.13;;;6.90;99.90;;;;;;5037583;28;20268;-78
2022/01/18 02:53:12;;;;;;;20.93;4.47;;;6.90;99.90;;;;;;5038549;28;20214;-77
2022/01/18 02:55:38;;;;;;;18.17;3.70;;;6.90;99.90;;;;;;5037964;28;20220;-77
2022/01/18 02:58:09;;;;;;;19.83;4.37;;;6.90;99.90;;;;;;5019864;28;20184;-77
2022/01/18 03:03:29;;;;;;;23.87;5.03;;;6.90;99.90;;;;;;5014433;28;20207;-77
2022/01/18 03:05:55;;;;;;;20.40;4.57;;;6.90;99.90;;;;;;5020340;28;20180;-77
2022/01/18 03:08:21;;;;;;;17.50;4.00;;;6.90;99.90;;;;;;5037716;28;20180;-77
2022/01/18 03:10:47;;;;;;;18.97;4.17;;;6.90;99.90;;;;;;5037918;28;20184;-78
2022/01/18 03:13:12;;;;;;;22.77;4.40;;;6.90;99.90;;;;;;5037882;28;20169;-79
2022/01/18 03:15:38;;;;;;;20.87;4.17;;;6.80;99.90;;;;;;5020337;28;20195;-77
2022/01/18 03:18:08;;;;;;;19.70;3.53;;;6.90;99.90;;;;;;5019965;28;20191;-77
2022/01/18 03:20:34;;;;;;;16.77;3.17;;;6.90;99.90;;;;;;5037895;28;20693;-77
2022/01/18 03:23:00;;;;;;;17.50;3.23;;;6.90;99.90;;;;;;5037946;28;20183;-77
2022/01/18 03:25:40;;;;;;;18.97;3.13;;;6.90;99.90;;;;;;5037247;28;20176;-77
2022/01/18 03:28:09;;;;;;;13.37;3.30;;;6.90;99.90;;;;;;5037760;28;20650;-77
2022/01/18 03:30:40;;;;;;;20.27;3.53;;;6.80;99.90;;;;;;5037579;28;20203;-77
2022/01/18 03:33:09;;;;;;;21.07;3.70;;;6.90;99.90;;;;;;5037675;28;20634;-77
2022/01/18 03:35:35;;;;;;;13.10;3.50;;;6.80;99.90;;;;;;5019148;28;20657;-77
2022/01/18 03:38:00;;;;;;;14.80;3.23;;;6.80;99.90;;;;;;5037246;28;20176;-77
2022/01/18 03:40:26;;;;;;;17.23;3.23;;;6.80;99.90;;;;;;5036187;28;20223;-77
2022/01/18 03:42:54;;;;;;;18.83;3.70;;;6.80;99.90;;;;;;5036773;28;20188;-77
2022/01/18 03:45:28;;;;;;;19.37;3.53;;;6.80;99.90;;;;;;5035872;28;20224;-76
2022/01/18 03:47:55;;;;;;;18.00;3.10;;;6.80;99.90;;;;;;5036216;28;20191;-77
2022/01/18 03:50:21;;;;;;;19.33;3.60;;;6.80;99.90;;;;;;5018751;28;20220;-77
2022/01/18 03:52:46;;;;;;;14.47;2.83;;;6.80;99.90;;;;;;5036601;28;20192;-77
2022/01/18 03:55:14;;;;;;;16.10;3.27;;;6.80;99.90;;;;;;5036787;28;20184;-78
2022/01/18 03:57:40;;;;;;;16.47;2.77;;;6.80;99.90;;;;;;5036725;28;20176;-77
2022/01/18 04:00:10;;;;;;;17.10;3.27;;;6.80;99.90;;;;;;5019310;28;20667;-77
2022/01/18 04:02:35;;;;;;;16.10;2.83;;;6.80;99.90;;;;;;5036363;28;20246;-78
2022/01/18 04:05:02;;;;;;;18.67;3.23;;;6.80;99.90;;;;;;5018083;28;20657;-78
2022/01/18 04:07:27;;;;;;;15.73;3.10;;;6.80;99.90;;;;;;5036971;28;20190;-77
2022/01/18 04:09:53;;;;;;;20.60;3.57;;;6.80;99.90;;;;;;5036855;28;20269;-77
2022/01/18 04:12:19;;;;;;;15.97;3.27;;;6.80;99.90;;;;;;5037884;28;20215;-77
2022/01/18 04:14:44;;;;;;;16.63;2.60;;;6.70;99.90;;;;;;5019103;28;20184;-77
2022/01/18 04:27:59;;;;;;;18.30;3.43;;;6.70;99.90;;;;;;5014899;28;20191;-78
2022/01/18 04:30:25;;;;;;;16.17;3.33;;;6.70;99.90;;;;;;5038384;28;20212;-77
2022/01/18 04:32:50;;;;;;;11.60;2.53;;;6.60;99.90;;;;;;5020722;28;20664;-78
2022/01/18 04:35:16;;;;;;;18.57;2.90;;;6.60;99.90;;;;;;5039032;28;20192;-78
2022/01/18 04:37:42;;;;;;;17.37;2.63;;;6.60;99.90;;;;;;5020128;28;20251;-78
2022/01/18 04:40:13;;;;;;;12.67;2.30;;;6.60;99.90;;;;;;5037943;28;20222;-78
2022/01/18 04:43:06;;;;;;;17.67;3.00;;;6.50;99.90;;;;;;5019812;28;20188;-77
2022/01/18 04:50:52;;;;;;;17.40;3.30;;;6.50;99.90;;;;;;5036967;28;20160;-77
2022/01/18 04:53:17;;;;;;;17.13;3.47;;;6.50;99.90;;;;;;5036793;28;20195;-78
2022/01/18 04:55:43;;;;;;;19.67;3.80;;;6.50;99.90;;;;;;5037275;28;20236;-76
2022/01/18 04:58:08;;;;;;;23.13;3.57;;;6.50;99.90;;;;;;5018825;28;20187;-77
2022/01/18 05:00:35;;;;;;;25.83;4.03;;;6.50;99.90;;;;;;5036950;28;20207;-77
2022/01/18 05:03:00;;;;;;;10.97;2.73;;;6.50;99.90;;;;;;5036975;28;20314;-77
2022/01/18 05:05:29;;;;;;;22.83;3.20;;;6.50;99.90;;;;;;5020634;28;20215;-77
2022/01/18 05:08:01;;;;;;;16.10;2.87;;;6.50;99.90;;;;;;5037354;28;20179;-77
2022/01/18 05:10:29;;;;;;;26.23;4.00;;;6.50;99.90;;;;;;5037519;28;20302;-78
2022/01/18 05:12:57;;;;;;;26.67;4.50;;;6.50;99.90;;;;;;5037561;28;20183;-77
2022/01/18 05:23:06;;;;;;;23.93;5.03;;;6.50;99.90;;;;;;5041355;28;20172;-78
2022/01/18 05:25:33;;;;;;;18.57;3.50;;;6.50;99.90;;;;;;5041342;28;20184;-78
2022/01/18 05:28:00;;;;;;;22.53;4.20;;;6.50;99.90;;;;;;5040269;28;20608;-77
2022/01/18 05:30:30;;;;;;;24.87;4.60;;;6.50;99.90;;;;;;5041112;28;20220;-78
2022/01/18 05:32:56;;;;;;;21.73;4.63;;;6.50;99.90;;;;;;5040756;28;20186;-78
2022/01/18 05:35:23;;;;;;;30.47;6.30;;;6.50;99.90;;;;;;5040078;28;20251;-77
2022/01/18 05:37:49;;;;;;;21.13;4.67;;;6.60;99.90;;;;;;5040707;28;20208;-77
2022/01/18 05:40:17;;;;;;;22.43;4.77;;;6.60;99.90;;;;;;5040043;28;20233;-77
2022/01/18 05:42:43;;;;;;;19.30;4.50;;;6.60;99.90;;;;;;5041753;28;20269;-78
2022/01/18 05:45:10;;;;;;;25.93;5.43;;;6.50;99.90;;;;;;5041543;28;20256;-77
2022/01/18 05:47:37;;;;;;;21.33;4.50;;;6.60;99.90;;;;;;5024416;28;20195;-77
2022/01/18 05:50:04;;;;;;;29.73;5.97;;;6.60;99.90;;;;;;5039224;28;20218;-77
2022/01/18 05:52:29;;;;;;;24.60;5.90;;;6.60;99.90;;;;;;5037657;28;20183;-77
2022/01/18 05:54:55;;;;;;;23.53;5.50;;;6.50;99.90;;;;;;5038542;28;20173;-77
2022/01/18 05:57:20;;;;;;;20.47;4.33;;;6.50;99.90;;;;;;5040938;28;20192;-77
2022/01/18 05:59:47;;;;;;;22.30;5.40;;;6.50;99.90;;;;;;5039534;28;20241;-77
2022/01/18 06:02:42;;;;;;;16.40;5.30;;;6.50;99.90;;;;;;5039097;28;20192;-77
2022/01/18 06:07:46;;;;;;;34.40;7.53;;;6.60;99.90;;;;;;5039587;28;20172;-77
2022/01/18 06:10:12;;;;;;;29.10;7.13;;;6.60;99.90;;;;;;5021211;28;20240;-77
2022/01/18 06:12:39;;;;;;;24.93;5.97;;;6.50;99.90;;;;;;5018867;28;20197;-77
2022/01/18 06:15:05;;;;;;;27.20;7.00;;;6.60;99.90;;;;;;5018292;28;20184;-77
2022/01/18 06:17:31;;;;;;;25.50;6.97;;;6.50;99.90;;;;;;5018625;28;20181;-76
2022/01/18 06:19:56;;;;;;;29.33;7.20;;;6.60;99.90;;;;;;5037752;28;20234;-77
2022/01/18 06:22:22;;;;;;;44.57;8.20;;;6.60;99.90;;;;;;5019196;28;20279;-77
2022/01/18 06:24:47;;;;;;;25.30;7.20;;;6.60;99.90;;;;;;5039503;28;20212;-77
2022/01/18 06:27:13;;;;;;;25.40;7.37;;;6.60;99.90;;;;;;5041040;28;20187;-77
2022/01/18 06:29:39;;;;;;;27.33;8.57;;;6.60;99.90;;;;;;5038356;28;20223;-77
2022/01/18 06:32:06;;;;;;;24.60;6.73;;;6.60;99.90;;;;;;5037073;28;20271;-77
2022/01/18 06:34:32;;;;;;;26.00;7.10;;;6.50;99.90;;;;;;5020317;28;20185;-77
2022/01/18 06:36:58;;;;;;;23.60;6.70;;;6.60;99.90;;;;;;5038367;28;20238;-77
2022/01/18 06:39:23;;;;;;;30.10;6.80;;;6.60;99.90;;;;;;5038495;28;20239;-77
2022/01/18 06:41:49;;;;;;;28.87;7.57;;;6.60;99.90;;;;;;5021497;28;20290;-77
2022/01/18 06:44:14;;;;;;;27.77;6.30;;;6.60;99.90;;;;;;5038605;28;20195;-77
2022/01/18 06:46:40;;;;;;;21.57;6.20;;;6.60;99.90;;;;;;5023182;28;20210;-76
2022/01/18 06:49:06;;;;;;;31.40;6.70;;;6.60;99.90;;;;;;5042474;28;20212;-77
2022/01/18 06:51:32;;;;;;;30.17;7.27;;;6.60;99.90;;;;;;5024036;28;20184;-77
2022/01/18 06:53:57;;;;;;;25.27;5.77;;;6.60;99.90;;;;;;5041504;28;20184;-77
2022/01/18 06:56:25;;;;;;;27.07;6.53;;;6.50;99.90;;;;;;5041458;28;20275;-77
2022/01/18 06:58:52;;;;;;;28.03;6.30;;;6.60;99.90;;;;;;5041941;28;20253;-77
2022/01/18 07:01:19;;;;;;;21.67;6.70;;;6.60;99.90;;;;;;5023549;28;20187;-77
2022/01/18 07:03:45;;;;;;;14.07;5.77;;;6.60;99.90;;;;;;5041013;28;20200;-77
2022/01/18 07:06:11;;;;;;;17.53;5.03;;;6.60;99.90;;;;;;5023283;28;20212;-77
2022/01/18 07:08:36;;;;;;;19.00;5.93;;;6.50;99.90;;;;;;5041052;28;20211;-77
2022/01/18 07:11:03;;;;;;;25.00;6.50;;;6.50;99.90;;;;;;5022850;28;20176;-77
2022/01/18 07:13:29;;;;;;;34.33;6.83;;;6.50;99.90;;;;;;5040902;28;20183;-77
2022/01/18 07:15:54;;;;;;;26.57;7.17;;;6.50;99.90;;;;;;5041211;28;20253;-76
2022/01/18 07:18:20;;;;;;;26.67;7.30;;;6.50;99.90;;;;;;5022899;28;20206;-77
2022/01/18 07:20:46;;;;;;;30.70;7.47;;;6.50;99.90;;;;;;5022573;28;20262;-77
2022/01/18 07:23:12;;;;;;;27.33;7.40;;;6.50;99.90;;;;;;5040423;28;20199;-76
2022/01/18 07:25:46;;;;;;;21.93;7.47;;;6.50;99.90;;;;;;5039144;28;20212;-77
2022/01/18 07:28:14;;;;;;;22.70;7.23;;;6.50;99.90;;;;;;5040301;28;20222;-77
2022/01/18 07:30:41;;;;;;;25.27;7.53;;;6.50;99.90;;;;;;5038905;28;20202;-77
2022/01/18 07:33:06;;;;;;;25.10;7.53;;;6.50;99.90;;;;;;5039223;28;20180;-77
2022/01/18 07:35:34;;;;;;;20.80;7.10;;;6.50;99.90;;;;;;5021815;28;20184;-77
2022/01/18 07:38:02;;;;;;;20.93;7.10;;;6.50;99.90;;;;;;5038761;28;20176;-77
2022/01/18 07:40:28;;;;;;;22.10;6.77;;;6.40;99.90;;;;;;5021259;28;20223;-77
2022/01/18 07:42:54;;;;;;;23.70;7.00;;;6.40;99.90;;;;;;5039080;28;20188;-77
2022/01/18 07:45:21;;;;;;;20.43;6.97;;;6.40;99.90;;;;;;5039633;28;20672;-76
2022/01/18 07:47:47;;;;;;;21.47;6.57;;;6.60;99.90;;;;;;5037364;28;20178;-77
2022/01/18 07:50:12;;;;;;;25.17;7.20;;;6.40;99.90;;;;;;5018317;28;20241;-77
2022/01/18 07:52:38;;;;;;;19.87;7.00;;;6.40;99.90;;;;;;5034654;28;20227;-77
2022/01/18 07:55:05;;;;;;;24.70;8.20;;;6.40;99.90;;;;;;5035244;28;20238;-77
2022/01/18 07:57:30;;;;;;;30.47;8.30;;;6.40;99.90;;;;;;5017689;28;20184;-77
2022/01/18 07:59:56;;;;;;;27.83;8.80;;;6.40;99.90;;;;;;5035143;28;20219;-77
2022/01/18 08:02:22;;;;;;;29.13;9.30;;;6.40;99.90;;;;;;5017880;28;20216;-77
2022/01/18 08:04:48;;;;;;;26.67;8.17;;;6.40;99.90;;;;;;5016848;28;20194;-77
2022/01/18 08:07:13;;;;;;;24.03;7.97;;;6.50;99.90;;;;;;5034938;28;20187;-77
2022/01/18 08:10:01;;;;;;;23.27;9.03;;;6.50;99.90;;;;;;5017422;28;20222;-77
2022/01/18 08:12:26;;;;;;;27.27;8.20;;;6.40;99.90;;;;;;5034915;28;20674;-78
2022/01/18 08:14:55;;;;;;;22.83;7.73;;;6.50;99.90;;;;;;5034972;28;20261;-77
2022/01/18 08:17:22;;;;;;;19.70;6.87;;;6.50;99.90;;;;;;5035544;28;20172;-76
2022/01/18 08:19:48;;;;;;;23.03;7.00;;;6.50;99.90;;;;;;5034779;28;20304;-77
2022/01/18 08:22:14;;;;;;;20.93;8.43;;;6.50;99.90;;;;;;5016884;28;20187;-78
2022/01/18 08:24:40;;;;;;;24.30;8.47;;;6.50;99.90;;;;;;5034837;28;20192;-77
2022/01/18 08:27:07;;;;;;;23.33;8.10;;;6.50;99.90;;;;;;5034850;28;20194;-77
2022/01/18 08:29:36;;;;;;;34.37;9.90;;;6.50;99.90;;;;;;5016368;28;20726;-77
2022/01/18 08:32:04;;;;;;;37.60;11.03;;;6.60;99.90;;;;;;5034691;28;20267;-77
2022/01/18 08:34:30;;;;;;;37.67;10.60;;;6.60;99.90;;;;;;5016895;28;20187;-77
2022/01/18 08:37:04;;;;;;;35.83;10.80;;;6.60;99.90;;;;;;5035372;28;20177;-78
2022/01/18 08:39:29;;;;;;;33.90;9.97;;;6.70;99.90;;;;;;5034574;28;20220;-79
2022/01/18 08:41:55;;;;;;;31.67;10.33;;;6.70;99.90;;;;;;5033740;28;20245;-78
2022/01/18 08:44:21;;;;;;;32.07;10.70;;;6.70;99.90;;;;;;5034028;28;20180;-78
2022/01/18 08:46:46;;;;;;;34.33;9.67;;;6.70;99.90;;;;;;5033836;28;20187;-77
2022/01/18 08:49:12;;;;;;;38.60;11.20;;;6.70;99.90;;;;;;5033394;28;20208;-77
2022/01/18 08:51:37;;;;;;;28.60;10.63;;;6.70;99.90;;;;;;5033305;28;20172;-77
2022/01/18 08:54:04;;;;;;;36.57;10.20;;;6.80;99.90;;;;;;5015343;28;20670;-77
2022/01/18 08:56:30;;;;;;;28.37;10.60;;;6.80;99.90;;;;;;5037867;28;20183;-77
2022/01/18 08:58:57;;;;;;;30.17;10.37;;;6.80;99.90;;;;;;5019425;28;20208;-77
2022/01/18 09:01:23;;;;;;;30.90;10.77;;;6.90;99.90;;;;;;5019438;28;20266;-77
2022/01/18 09:03:50;;;;;;;32.47;10.87;;;6.80;99.90;;;;;;5036908;28;20590;-77
2022/01/18 09:06:19;;;;;;;35.10;12.27;;;6.90;99.90;;;;;;5037068;28;20206;-77
2022/01/18 09:08:54;;;;;;;30.87;12.93;;;6.90;99.90;;;;;;5019112;28;20241;-77
2022/01/18 09:11:20;;;;;;;31.20;11.30;;;6.90;99.90;;;;;;5019367;28;20179;-78
2022/01/18 09:13:46;;;;;;;32.07;11.43;;;7.00;99.90;;;;;;5019114;28;20183;-77
2022/01/18 09:16:11;;;;;;;28.53;11.00;;;6.90;99.90;;;;;;5019038;28;20660;-77
2022/01/18 09:18:37;;;;;;;32.60;11.50;;;7.00;99.90;;;;;;5018923;28;20180;-77
2022/01/18 09:21:04;;;;;;;34.30;11.63;;;7.00;99.90;;;;;;5019059;28;20187;-77
2022/01/18 09:23:30;;;;;;;40.23;12.77;;;7.00;99.90;;;;;;5039771;28;20168;-77
2022/01/18 09:26:01;;;;;;;33.13;12.23;;;7.00;99.90;;;;;;5041491;28;20187;-78
2022/01/18 09:28:30;;;;;;;35.27;12.90;;;7.10;99.90;;;;;;5025991;28;20187;-79
2022/01/18 09:30:55;;;;;;;28.60;11.43;;;7.10;99.90;;;;;;5046974;28;20180;-78
2022/01/18 09:33:21;;;;;;;31.43;12.10;;;7.10;99.90;;;;;;5046570;28;20256;-78
2022/01/18 09:35:47;;;;;;;29.93;11.40;;;7.10;99.90;;;;;;5047743;28;20215;-77
2022/01/18 09:38:15;;;;;;;35.37;11.00;;;7.10;99.90;;;;;;5042653;28;20238;-77
2022/01/18 09:40:43;;;;;;;29.47;12.07;;;7.10;99.90;;;;;;5048228;28;20230;-77
2022/01/18 09:43:18;;;;;;;37.97;11.23;;;7.20;99.90;;;;;;5047255;28;20176;-79
2022/01/18 09:45:53;;;;;;;28.60;11.87;;;7.20;99.90;;;;;;5051506;28;20164;-77
2022/01/18 09:48:19;;;;;;;35.57;12.47;;;7.20;99.90;;;;;;5038958;28;20215;-77
2022/01/18 09:50:46;;;;;;;33.57;11.50;;;7.30;99.90;;;;;;5036115;28;20224;-77
2022/01/18 09:53:12;;;;;;;35.23;12.93;;;7.30;99.90;;;;;;5018261;28;20210;-76
2022/01/18 09:55:39;;;;;;;31.80;12.60;;;7.30;99.90;;;;;;5018261;28;20552;-76
2022/01/18 09:58:07;;;;;;;28.13;12.83;;;7.30;99.90;;;;;;5036200;28;20177;-77
2022/01/18 10:00:37;;;;;;;27.10;11.87;;;7.30;99.90;;;;;;5035803;28;20203;-76
2022/01/18 10:03:02;;;;;;;32.43;12.73;;;7.40;99.90;;;;;;5018114;28;20722;-76
2022/01/18 10:05:31;;;;;;;32.10;12.20;;;7.50;99.90;;;;;;5035681;28;20268;-77
2022/01/18 10:08:06;;;;;;;35.77;13.00;;;7.50;99.90;;;;;;5035980;28;20178;-77
2022/01/18 10:10:38;;;;;;;34.03;13.43;;;7.50;99.90;;;;;;5035729;28;20208;-77
2022/01/18 10:13:04;;;;;;;27.07;11.90;;;7.50;99.90;;;;;;5035832;28;20204;-76
2022/01/18 10:15:30;;;;;;;31.30;12.60;;;7.50;99.90;;;;;;5035673;28;20200;-77
2022/01/18 10:18:09;;;;;;;33.30;13.30;;;7.60;99.90;;;;;;5035889;28;20195;-77
2022/01/18 10:20:51;;;;;;;40.30;14.63;;;7.60;99.90;;;;;;5035986;28;20234;-77
2022/01/18 10:23:24;;;;;;;36.07;15.67;;;7.60;99.90;;;;;;5018099;28;20183;-77
2022/01/18 10:25:50;;;;;;;43.03;15.77;;;7.70;99.90;;;;;;5035662;28;20206;-76
2022/01/18 10:28:34;;;;;;;37.23;14.87;;;7.70;99.90;;;;;;5035338;28;20581;-76
2022/01/18 10:31:06;;;;;;;36.20;16.67;;;7.70;99.90;;;;;;5035866;28;20251;-78
2022/01/18 10:33:36;;;;;;;43.50;18.03;;;7.70;99.90;;;;;;5018283;28;20630;-77
2022/01/18 10:36:11;;;;;;;33.93;18.30;;;7.70;99.90;;;;;;5018180;28;20184;-78
2022/01/18 10:38:42;;;;;;;47.53;20.13;;;7.70;99.90;;;;;;5036110;28;20258;-77
2022/01/18 10:41:23;;;;;;;41.13;20.53;;;7.80;99.90;;;;;;5036418;28;20735;-78
2022/01/18 10:44:02;;;;;;;45.37;19.90;;;7.80;99.90;;;;;;5035630;28;20176;-77
2022/01/18 10:46:36;;;;;;;42.00;20.60;;;7.80;99.90;;;;;;5035421;28;20181;-78
2022/01/18 10:49:03;;;;;;;37.73;19.20;;;7.80;99.90;;;;;;5017765;28;20244;-77
2022/01/18 10:51:30;;;;;;;50.37;21.20;;;7.90;99.90;;;;;;5035567;28;20172;-77
2022/01/18 10:54:09;;;;;;;50.23;23.73;;;7.90;99.90;;;;;;5017097;28;20701;-77
2022/01/18 10:56:41;;;;;;;38.30;21.70;;;8.00;99.90;;;;;;5035161;28;20207;-77
2022/01/18 10:59:08;;;;;;;51.87;24.50;;;8.00;99.90;;;;;;5034840;28;20295;-77
2022/01/18 11:01:33;;;;;;;42.93;22.37;;;8.00;99.90;;;;;;5034791;28;20542;-77
2022/01/18 11:04:15;;;;;;;39.43;22.40;;;8.00;99.90;;;;;;5035992;28;20192;-78
2022/01/18 11:06:56;;;;;;;44.47;22.20;;;8.00;99.90;;;;;;5017163;28;20650;-77
2022/01/18 11:09:21;;;;;;;47.40;24.93;;;8.00;99.90;;;;;;5034659;28;20208;-77
2022/01/18 11:11:48;;;;;;;47.30;24.40;;;8.00;99.90;;;;;;5034868;28;20204;-77
2022/01/18 11:14:20;;;;;;;57.07;25.07;;;8.00;99.90;;;;;;5034616;28;20669;-77
2022/01/18 11:16:50;;;;;;;49.67;25.50;;;8.00;99.90;;;;;;5034742;28;20525;-77
2022/01/18 11:21:47;;;;;;;54.67;26.03;;;8.00;99.90;;;;;;5035007;28;20165;-77
2022/01/18 11:24:16;;;;;;;53.30;23.27;;;8.00;99.90;;;;;;5016627;28;20184;-77
2022/01/18 11:26:44;;;;;;;52.17;23.60;;;8.00;99.90;;;;;;5016572;28;20188;-77
2022/01/18 11:29:11;;;;;;;50.07;24.37;;;8.00;99.90;;;;;;5016438;28;20215;-77
2022/01/18 11:31:37;;;;;;;48.73;24.03;;;8.00;99.90;;;;;;5035358;28;20172;-78
2022/01/18 11:34:06;;;;;;;45.77;22.77;;;8.00;99.90;;;;;;5017945;28;20239;-77
2022/01/18 11:36:39;;;;;;;35.97;22.30;;;8.00;99.90;;;;;;5017503;28;20177;-77
2022/01/18 11:39:07;;;;;;;41.40;23.03;;;8.00;99.90;;;;;;5035299;28;20246;-77
2022/01/18 11:41:35;;;;;;;53.50;23.50;;;8.00;99.90;;;;;;5035183;28;20176;-77
2022/01/18 11:44:20;;;;;;;43.90;21.73;;;8.00;99.90;;;;;;5035368;28;20180;-78
2022/01/18 11:46:51;;;;;;;49.17;23.47;;;8.00;99.90;;;;;;5037863;28;20167;-77
2022/01/18 11:49:19;;;;;;;51.37;25.17;;;8.00;99.90;;;;;;5043479;28;20207;-78
2022/01/18 11:51:58;;;;;;;45.77;22.43;;;8.00;99.90;;;;;;5040496;28;20544;-78
2022/01/18 11:57:24;;;;;;;50.13;23.53;;;8.00;99.90;;;;;;5036968;28;20157;-78
2022/01/18 11:59:54;;;;;;;50.23;25.03;;;8.10;99.90;;;;;;5036987;28;20211;-78
2022/01/18 12:02:28;;;;;;;52.37;24.50;;;8.10;99.90;;;;;;5018014;28;20762;-77
2022/01/18 12:04:56;;;;;;;55.23;25.60;;;8.20;99.90;;;;;;5038021;28;20168;-77
2022/01/18 12:07:44;;;;;;;43.97;24.30;;;8.10;99.90;;;;;;5034905;28;20233;-77
2022/01/18 12:10:32;;;;;;;52.50;23.63;;;8.20;99.90;;;;;;5004608;28;20602;-77
2022/01/18 12:13:04;;;;;;;53.53;22.80;;;8.10;99.90;;;;;;4996625;28;20276;-77
2022/01/18 12:15:32;;;;;;;47.33;20.63;;;8.10;99.90;;;;;;5014226;28;20157;-77
2022/01/18 12:18:01;;;;;;;53.23;22.23;;;8.10;99.90;;;;;;5016087;28;20185;-77
2022/01/18 12:20:45;;;;;;;47.33;19.80;;;8.10;99.90;;;;;;5034311;28;20472;-77
2022/01/18 12:23:14;;;;;;;53.10;20.47;;;8.20;99.90;;;;;;5016552;28;20176;-77
2022/01/18 12:26:35;;;;;;;47.67;21.03;;;8.20;99.90;;;;;;5040538;28;20188;-78
2022/01/18 12:29:21;;;;;;;44.23;18.27;;;8.20;99.90;;;;;;5008013;28;20216;-78
2022/01/18 12:34:43;;;;;;;43.63;18.03;;;8.20;99.90;;;;;;5036957;28;20199;-77
2022/01/18 12:37:13;;;;;;;38.17;18.67;;;8.30;99.90;;;;;;5015971;28;20268;-77
2022/01/18 12:45:05;;;;;;;40.80;15.90;;;8.30;99.90;;;;;;5034712;28;20167;-77
2022/01/18 12:47:34;;;;;;;33.37;15.07;;;8.30;99.90;;;;;;5017363;28;20252;-79
2022/01/18 12:50:01;;;;;;;33.00;14.43;;;8.40;99.90;;;;;;5036679;28;20265;-77
2022/01/18 12:52:26;;;;;;;28.60;14.10;;;8.40;99.90;;;;;;5019001;28;20191;-78
2022/01/18 12:54:52;;;;;;;34.17;15.97;;;8.40;99.90;;;;;;5036429;28;20180;-77
2022/01/18 12:57:23;;;;;;;34.17;14.93;;;8.50;99.90;;;;;;5036468;28;20183;-78
2022/01/18 13:00:08;;;;;;;30.20;15.30;;;8.50;99.90;;;;;;5016922;28;20219;-77
2022/01/18 13:02:35;;;;;;;27.93;14.80;;;8.50;99.90;;;;;;5016525;28;20649;-77
2022/01/18 13:05:07;;;;;;;33.53;15.43;;;8.80;99.90;;;;;;5015807;28;20236;-78
2022/01/18 13:07:48;;;;;;;22.63;8.67;;;8.70;99.90;;;;;;5013979;28;20267;-77
2022/01/18 13:10:13;;;;;;;22.23;5.83;;;8.80;99.90;;;;;;5013619;28;20275;-76
2022/01/18 13:12:39;;;;;;;17.03;5.77;;;8.80;99.90;;;;;;4996749;28;20185;-78
2022/01/18 13:15:08;;;;;;;18.83;5.03;;;8.80;99.90;;;;;;5012742;28;20176;-77
2022/01/18 13:23:18;;;;;;;23.90;6.60;;;8.80;99.90;;;;;;5033832;28;20171;-77
2022/01/18 13:25:56;;;;;;;19.33;7.20;;;8.80;99.90;;;;;;5033665;28;20280;-77
2022/01/18 13:28:36;;;;;;;19.50;6.63;;;8.80;99.90;;;;;;5033351;28;20178;-77
2022/01/18 13:31:15;;;;;;;18.37;5.73;;;8.70;99.90;;;;;;5032778;28;20184;-77
2022/01/18 13:34:00;;;;;;;24.73;6.97;;;8.70;99.90;;;;;;5015429;28;20188;-77
2022/01/18 13:36:28;;;;;;;16.67;5.63;;;8.60;99.90;;;;;;5015861;28;20188;-77
2022/01/18 13:38:54;;;;;;;20.47;6.77;;;8.60;99.90;;;;;;5033187;28;20270;-77
2022/01/18 13:41:20;;;;;;;19.27;7.20;;;8.50;99.90;;;;;;5017469;28;20195;-77
2022/01/18 13:43:47;;;;;;;18.53;7.00;;;8.50;99.90;;;;;;5020840;28;20666;-77
2022/01/18 13:46:26;;;;;;;18.83;7.37;;;8.50;99.90;;;;;;5038685;28;20557;-77
2022/01/18 13:49:06;;;;;;;20.80;7.20;;;8.50;99.90;;;;;;5039526;28;20685;-78
2022/01/18 13:51:32;;;;;;;19.53;7.37;;;8.40;99.90;;;;;;5039569;28;20748;-77
2022/01/18 13:53:59;;;;;;;21.10;8.10;;;8.50;99.90;;;;;;5019698;28;20226;-79
2022/01/18 13:56:26;;;;;;;25.73;7.70;;;8.50;99.90;;;;;;5022351;28;20181;-78
2022/01/18 13:59:03;;;;;;;21.73;7.50;;;8.50;99.90;;;;;;5026693;28;20216;-79
2022/01/18 14:01:34;;;;;;;21.97;8.00;;;8.50;99.90;;;;;;5021048;28;20182;-77
2022/01/18 14:04:13;;;;;;;23.27;7.53;;;8.60;99.90;;;;;;5036996;28;20169;-77
2022/01/18 14:06:41;;;;;;;24.97;7.43;;;8.80;99.90;;;;;;5036548;28;20653;-76
2022/01/18 14:09:08;;;;;;;26.10;7.10;;;8.70;99.90;;;;;;5020698;28;20216;-77
2022/01/18 14:11:36;;;;;;;19.27;6.87;;;8.60;99.90;;;;;;5037165;28;20245;-77
2022/01/18 14:14:24;;;;;;;21.57;6.43;;;8.60;99.90;;;;;;5042517;28;20223;-76
2022/01/18 14:17:05;;;;;;;22.03;7.07;;;8.60;99.90;;;;;;5036798;28;20659;-76